WetterOnline ( https://www.wetteronline.ch )

Wetter aktuell Itzehoe

Aktuelles Wetter: Itzehoe (26m)

6-stündlich | Neueste Meldungen
Ortszeit Temperatur Wetter
Mo, 13.07. 14:00 18.4° C wolkig
Mo, 13.07. 8:00 14.6° C wolkig
Mo, 13.07. 2:00 9.7° C Nebel
So, 12.07. 20:00 17.8° C wolkenlos
So, 12.07. 14:00 17.2° C bedeckt
So, 12.07. 8:00 13.6° C wolkenlos
So, 12.07. 2:00 9.0° C wolkenlos
Sa, 11.07. 20:00 16.2° C wolkenlos
Ortszeit Temperatur Wetter
Mo, 13.07. 19:30 19.5° C bedeckt
Mo, 13.07. 19:20 19.5° C bedeckt
Mo, 13.07. 19:10 20.2° C bedeckt
Mo, 13.07. 19:00 19.1° C bedeckt
Mo, 13.07. 18:50 19.1° C bedeckt
Mo, 13.07. 18:40 19.4° C bedeckt
Mo, 13.07. 18:30 19.7° C bewölkt
Mo, 13.07. 18:00 19.9° C wolkig
Mo, 13.07. 16:00 19.5° C wolkig
Ortszeit Relative Feuchte Sichtweite
Mo, 13.07. 14:00 56% >70 km
Mo, 13.07. 8:00 84% 40 km
Mo, 13.07. 2:00 99% 0.4 km
So, 12.07. 20:00 54% >70 km
So, 12.07. 14:00 56% >70 km
So, 12.07. 8:00 85% 40 km
So, 12.07. 2:00 98% 30 km
Sa, 11.07. 20:00 62% 65 km
Ortszeit Relative Feuchte Sichtweite
Mo, 13.07. 19:30 57% 65 km
Mo, 13.07. 19:20 57% -
Mo, 13.07. 19:10 57% -
Mo, 13.07. 19:00 57% 55 km
Mo, 13.07. 18:50 57% -
Mo, 13.07. 18:40 56% -
Mo, 13.07. 18:30 54% 60 km
Mo, 13.07. 18:00 54% 55 km
Mo, 13.07. 16:00 53% >70 km
Ortszeit Niederschlagsmenge Niederschlagsart
Mo, 13.07. 14:00 0.0 l/m2 in 6 Std. -
Mo, 13.07. 8:00 0.0 l/m2 in 12 Std. -
Mo, 13.07. 2:00 0.0 l/m2 in 6 Std. -
So, 12.07. 20:00 0.1 l/m2 in 12 Std. -
So, 12.07. 14:00 0.1 l/m2 in 6 Std. Regen
So, 12.07. 8:00 0.1 l/m2 in 12 Std. Regen
So, 12.07. 2:00 0.0 l/m2 in 6 Std. -
Sa, 11.07. 20:00 0.1 l/m2 in 12 Std. Sprühregen
Ortszeit Niederschlagsmenge Niederschlagsart
Mo, 13.07. 19:30 0.0 l/m2 in 1 Std. -
Mo, 13.07. 19:20 keine Meldung -
Mo, 13.07. 19:10 keine Meldung -
Mo, 13.07. 19:00 0.0 l/m2 in 1 Std. -
Mo, 13.07. 18:50 keine Meldung -
Mo, 13.07. 18:40 keine Meldung -
Mo, 13.07. 18:30 0.0 l/m2 in 1 Std. -
Mo, 13.07. 18:00 0.0 l/m2 in 1 Std. -
Mo, 13.07. 16:00 keine Meldung -
Ortszeit Stärke Spitze Richtung
km/h Bft. km/h Grad Sektor
Mo, 13.07. 14:00 9 2 24 290° W
Mo, 13.07. 8:00 7 2 11 230° SW
Mo, 13.07. 2:00 0 0 18 - -
So, 12.07. 20:00 9 2 28 330° NW
So, 12.07. 14:00 13 3 26 320° NW
So, 12.07. 8:00 4 1 7 250° W
So, 12.07. 2:00 2 1 19 240° SW
Sa, 11.07. 20:00 9 2 41 320° NW
Ortszeit Stärke Spitze Richtung
km/h Bft. km/h Grad Sektor
Mo, 13.07. 19:30 9 2 15 340° N
Mo, 13.07. 19:20 9 2 - 340° N
Mo, 13.07. 19:10 7 2 - 330° NW
Mo, 13.07. 19:00 7 2 18 340° N
Mo, 13.07. 18:50 7 2 - 340° N
Mo, 13.07. 18:40 9 2 - 340° N
Mo, 13.07. 18:30 9 2 15 330° NW
Mo, 13.07. 18:00 9 2 17 320° NW
Mo, 13.07. 16:00 7 2 22 300° NW
Ortszeit Untergrenze Bedeckung Gattung
total tief tief mittel hoch
Mo, 13.07. 14:00 1170 m 7/8 4/8 - - -
Mo, 13.07. 8:00 10500 m 8/8 0/8 - - -
Mo, 13.07. 2:00 - 0/8 0/8 - - -
So, 12.07. 20:00 - 0/8 0/8 - - -
So, 12.07. 14:00 1110 m 8/8 8/8 - - -
So, 12.07. 8:00 - 0/8 0/8 - - -
So, 12.07. 2:00 - 0/8 0/8 - - -
Sa, 11.07. 20:00 - 0/8 0/8 - - -
Ortszeit Bedeckungsgrad in Achtel und Wolkenuntergrenze
Mo, 13.07. 19:30 8(4800m) 8(5700m) 8(6300m)
Mo, 13.07. 19:20 8(4800m) 8(5700m) 8(6300m)
Mo, 13.07. 19:10 8(4800m) 8(6300m) 8(9000m)
Mo, 13.07. 19:00 8(4800m) 8(6300m) 8(10500m)
Mo, 13.07. 18:50 8(4800m) 8(6300m) 8(10500m)
Mo, 13.07. 18:40 8(4800m) 8(5400m) 8(6300m)
Mo, 13.07. 18:30 5(4800m) 7(6300m) 8(9000m)
Mo, 13.07. 18:00 1(1260m) 8(10500m) 8(10500m)
Mo, 13.07. 16:00 1(1320m) 8(9000m) 8(10500m)
Ortszeit Luftdruck NN (hPa) Tendenz (hPa in 3 Std.)
Mo, 13.07. 14:00 1023 - 1,2
Mo, 13.07. 8:00 1026 - 0,1
Mo, 13.07. 2:00 1027 - 0,6
So, 12.07. 20:00 1027 - 0,5
So, 12.07. 14:00 1028 + 0,2
So, 12.07. 8:00 1027 + 0,9
So, 12.07. 2:00 1026 + 0,5
Sa, 11.07. 20:00 1024 + 1,0
Ortszeit Luftdruck NN (hPa) Tendenz (hPa in 3 Std.)
Mo, 13.07. 19:30 1021 - 1,5
Mo, 13.07. 19:20 1021 keine Meldung
Mo, 13.07. 19:10 1021 keine Meldung
Mo, 13.07. 19:00 1021 - 1,6
Mo, 13.07. 18:50 1021 keine Meldung
Mo, 13.07. 18:40 1021 keine Meldung
Mo, 13.07. 18:30 1021 - 1,5
Mo, 13.07. 18:00 1021 - 1,7
Mo, 13.07. 16:00 1022 - 1,5
Ortszeit Schneehöhe (cm)
Mo, 13.07. 14:00 -
Mo, 13.07. 8:00 -
Mo, 13.07. 2:00 -
So, 12.07. 20:00 -
So, 12.07. 14:00 -
So, 12.07. 8:00 -
So, 12.07. 2:00 -
Sa, 11.07. 20:00 -
Ortszeit Schneehöhe (cm)
Mo, 13.07. 19:30 -
Mo, 13.07. 19:20 -
Mo, 13.07. 19:10 -
Mo, 13.07. 19:00 -
Mo, 13.07. 18:50 -
Mo, 13.07. 18:40 -
Mo, 13.07. 18:30 -
Mo, 13.07. 18:00 -
Mo, 13.07. 16:00 -
Link zu dieser Seite / Seite empfehlen

Das Wetter in ...